Архив погоды в Кирове

Метеограмма Киров
Вторник, 25 Июня
Время местн. Темп Ветер Видим Явления Облачность нижн/средн/верх Атм. давл. Влжн Точка росы ВНГО R Сост. почвы Tg s
Напр Скр Прв ур.ст ур.м изм
06:00 +12.8° С,С-З 2 4 20 км - переменная облачность 751 765 +0.5 75% +8.4° - - Сухая (без трещин) - -
03:00 +11.4° С-З 1 2 20 км - переменная облачность 750 765 +0.3 76% +7.4° - - - - -
00:00 +14° штиль 0 0 20 км - ясно 750 764 +0.5 59% +6.1° более 2.5 км - - - -
Понедельник, 24 Июня
Время местн. Темп Ветер Видим Явления Облачность нижн/средн/верх Атм. давл. Влжн Точка росы ВНГО R Сост. почвы Tg s
Напр Скр Прв ур.ст ур.м изм
21:00 +17.4° штиль 0 1 20 км - облачно с прояснениями 750 764 +0.4 50% +7° - - - - -
18:00 +21.8° С-З 2 5 20 км - облачно с прояснениями 749 763 +0.1 32% +4.5° 1 км - - - -
15:00 +22.4° С-З 2 6 20 км - облачно с прояснениями 749 763 0 31% +4.3° 1 км - - - -
12:00 +22.2° С-З 2 6 20 км - переменная облачность 749 763 -0.2 35% +6.2° 1 км - - - -
09:00 +20.8° З,С-З 2 4 20 км - переменная облачность 749 763 +0.2 50% +9.9° 1 км - - - -
06:00 +17° С-З 1 2 20 км - переменная облачность 749 763 +0.5 63% +10° - - Сухая (без трещин) - -
03:00 +12.9° штиль 0 0 20 км - облачно 749 763 +0.8 79% +9.4° - - - - -
00:00 +16.9° С-З 1 3 20 км - преимущественно облачно 748 762 +0.8 60% +9.2° - - - - -
Воскресенье, 23 Июня
Время местн. Темп Ветер Видим Явления Облачность нижн/средн/верх Атм. давл. Влжн Точка росы ВНГО R Сост. почвы Tg s
Напр Скр Прв ур.ст ур.м изм
21:00 +20.4° З 2 3 20 км - переменная облачность 747 761 +0.5 46% +8.4° - - - - -
18:00 +25.2° З,С-З 3 7 20 км - незначительная облачность 747 760 0 34% +8.2° 1 км - - - -
15:00 +25.6° З,С-З 4 8 20 км - облачно с прояснениями 747 760 +0.4 36% +9.4° 1 км - - - -
12:00 +24.5° С-З 3 7 20 км - облачно с прояснениями 746 760 +0.8 58% +15.6° 1 км - - - -
09:00 +22° З 3 6 20 км - преимущественно облачно 746 759 +0.7 83% +19° 1 км - - - -
06:00 +19° З 2 5 20 км - облачно 745 759 +0.5 97% +18.5° 600 м - Влажная (без луж) - -
03:00 +18.8° З,С-З 3 6 20 км небо без изменений {ливневые осадки} облачно 744 758 0 97% +18.3° 1 км - - - -
00:00 +18.6° Ю-З 1 3 20 км слабый ливневый дождь облачно 744 758 -0.1 97% +18.1° 600 м - - - -
Суббота, 22 Июня
Время местн. Темп Ветер Видим Явления Облачность нижн/средн/верх Атм. давл. Влжн Точка росы ВНГО R Сост. почвы Tg s
Напр Скр Прв ур.ст ур.м изм
21:00 +22° Ю-З 1 3 20 км - облачно 744 758 -1.1 79% +18.1° 1 км - - - -
18:00 +22° Ю 1 2 20 км - облачно 745 761 -1.7 82% +18.7° 1 км - - - -
15:00 +20.2° Ю 1 2 20 км небо без изменений {ливневые осадки} облачно 747 761 -0.4 87% +18° 1 км - - - -
12:00 +25.1° З 4 8 20 км ливневый дождь облачно 748 761 -0.4 48% +13.3° 1 км - - - -
09:00 +24° Ю 2 5 20 км - облачно с прояснениями 748 762 -1.2 57% +15° 1.5 км - - - -
06:00 +17.4° Ю,Ю-В 2 2 20 км - облачно с прояснениями 749 763 -0.5 74% +12.7° 1 км - Сухая (без трещин) - -
03:00 +14° Ю 1 2 20 км - облачно с прояснениями 750 764 0 76% +9.8° 1 км - - - -